Terminal Aerodrome Forecast
Issued by NWS Cleveland, OH

Home | Current Version | Previous Version | Graphics & Text | Print | Product List | Glossary Off
Versions: 1 2 3 4 5 6 7 8 9 10 11 12 13 14 15 16 17 18 19

000
FTUS41 KCLE 291029 AAB
TAFERI
TAF AMD
KERI 291029Z 2910/3006 36005KT P6SM OVC015
     FM291700 03010KT 6SM -SHRA OVC015
     FM292200 02008KT P6SM OVC028
     FM300200 VRB04KT P6SM BKN050=

USA.gov is the U.S. government's official web portal to all federal, state and local government web resources and services.